sensor_id;sensor_type;location;lat;lon;timestamp;pressure;altitude;pressure_sealevel;temperature;humidity
27980;BME280;15315;50.836;4.430;2024-02-28T00:04:31;101532.34;;;11.46;57.33
27980;BME280;15315;50.836;4.430;2024-02-28T00:14:32;101516.56;;;10.94;59.46
27980;BME280;15315;50.836;4.430;2024-02-28T00:24:32;101509.78;;;10.72;59.79
27980;BME280;15315;50.836;4.430;2024-02-28T00:34:33;101503.53;;;10.87;60.02
27980;BME280;15315;50.836;4.430;2024-02-28T00:44:33;101512.50;;;10.72;59.83
27980;BME280;15315;50.836;4.430;2024-02-28T00:54:35;101523.22;;;10.58;60.32
27980;BME280;15315;50.836;4.430;2024-02-28T01:04:35;101510.91;;;10.99;58.99
27980;BME280;15315;50.836;4.430;2024-02-28T01:14:35;101506.00;;;11.05;57.69
27980;BME280;15315;50.836;4.430;2024-02-28T01:24:36;101499.06;;;11.16;56.96
27980;BME280;15315;50.836;4.430;2024-02-28T01:34:37;101471.84;;;10.90;57.33
27980;BME280;15315;50.836;4.430;2024-02-28T01:44:41;101503.34;;;10.74;57.26
27980;BME280;15315;50.836;4.430;2024-02-28T01:54:43;101500.16;;;10.68;57.48
27980;BME280;15315;50.836;4.430;2024-02-28T02:04:44;101504.63;;;10.53;57.69
27980;BME280;15315;50.836;4.430;2024-02-28T02:14:50;101500.75;;;10.26;58.06
27980;BME280;15315;50.836;4.430;2024-02-28T02:24:51;101506.06;;;9.63;60.47
27980;BME280;15315;50.836;4.430;2024-02-28T02:34:51;101513.31;;;9.29;62.12
27980;BME280;15315;50.836;4.430;2024-02-28T02:44:51;101530.31;;;9.46;61.58
27980;BME280;15315;50.836;4.430;2024-02-28T02:54:52;101509.19;;;10.04;59.89
27980;BME280;15315;50.836;4.430;2024-02-28T03:04:52;101507.50;;;9.53;60.28
27980;BME280;15315;50.836;4.430;2024-02-28T03:14:53;101532.00;;;8.96;63.63
27980;BME280;15315;50.836;4.430;2024-02-28T03:24:53;101523.69;;;8.83;63.77
27980;BME280;15315;50.836;4.430;2024-02-28T03:34:55;101524.94;;;9.12;63.30
27980;BME280;15315;50.836;4.430;2024-02-28T03:44:56;101524.84;;;9.48;61.26
27980;BME280;15315;50.836;4.430;2024-02-28T03:54:56;101527.78;;;9.09;62.21
27980;BME280;15315;50.836;4.430;2024-02-28T04:04:57;101523.13;;;8.77;63.46
27980;BME280;15315;50.836;4.430;2024-02-28T04:14:58;101518.13;;;9.56;60.61
27980;BME280;15315;50.836;4.430;2024-02-28T04:24:58;101517.00;;;8.92;62.56
27980;BME280;15315;50.836;4.430;2024-02-28T04:34:59;101516.31;;;9.05;62.62
27980;BME280;15315;50.836;4.430;2024-02-28T04:45:00;101512.25;;;9.48;60.45
27980;BME280;15315;50.836;4.430;2024-02-28T04:55:00;101533.41;;;9.39;60.51
27980;BME280;15315;50.836;4.430;2024-02-28T05:05:01;101534.13;;;8.72;63.12
27980;BME280;15315;50.836;4.430;2024-02-28T05:15:02;101553.13;;;8.86;63.99
27980;BME280;15315;50.836;4.430;2024-02-28T05:25:03;101562.22;;;9.54;62.42
27980;BME280;15315;50.836;4.430;2024-02-28T05:35:03;101562.03;;;9.74;61.67
27980;BME280;15315;50.836;4.430;2024-02-28T05:45:04;101560.72;;;10.14;61.79
27980;BME280;15315;50.836;4.430;2024-02-28T05:55:05;101553.06;;;10.55;60.59
27980;BME280;15315;50.836;4.430;2024-02-28T06:05:06;101543.84;;;10.43;60.42
27980;BME280;15315;50.836;4.430;2024-02-28T06:15:06;101543.75;;;10.60;60.75
27980;BME280;15315;50.836;4.430;2024-02-28T06:25:07;101563.94;;;10.84;60.84
27980;BME280;15315;50.836;4.430;2024-02-28T06:35:14;101559.03;;;10.91;61.78
27980;BME280;15315;50.836;4.430;2024-02-28T06:45:14;101568.78;;;10.93;62.90
27980;BME280;15315;50.836;4.430;2024-02-28T06:55:15;101582.88;;;10.52;67.98
27980;BME280;15315;50.836;4.430;2024-02-28T07:05:15;101596.22;;;11.16;65.99
27980;BME280;15315;50.836;4.430;2024-02-28T07:15:15;101614.81;;;11.36;65.76
27980;BME280;15315;50.836;4.430;2024-02-28T07:25:19;101613.53;;;11.72;65.05
27980;BME280;15315;50.836;4.430;2024-02-28T07:35:19;101630.94;;;12.11;65.46
27980;BME280;15315;50.836;4.430;2024-02-28T07:45:20;101628.25;;;11.97;66.82
27980;BME280;15315;50.836;4.430;2024-02-28T07:55:21;101634.94;;;12.62;66.00
27980;BME280;15315;50.836;4.430;2024-02-28T08:05:24;101643.13;;;12.18;69.20
27980;BME280;15315;50.836;4.430;2024-02-28T08:15:25;101646.59;;;12.06;71.28
27980;BME280;15315;50.836;4.430;2024-02-28T08:25:25;101654.09;;;12.99;68.39
27980;BME280;15315;50.836;4.430;2024-02-28T08:35:26;101648.44;;;13.43;66.49
27980;BME280;15315;50.836;4.430;2024-02-28T08:45:27;101660.91;;;12.64;70.64
27980;BME280;15315;50.836;4.430;2024-02-28T08:55:28;101661.13;;;13.16;68.49
27980;BME280;15315;50.836;4.430;2024-02-28T09:05:29;101652.72;;;13.33;68.70
27980;BME280;15315;50.836;4.430;2024-02-28T09:15:30;101663.66;;;13.98;66.71
27980;BME280;15315;50.836;4.430;2024-02-28T09:25:31;101671.69;;;14.24;64.50
27980;BME280;15315;50.836;4.430;2024-02-28T09:35:32;101676.56;;;14.19;65.52
27980;BME280;15315;50.836;4.430;2024-02-28T09:45:33;101676.56;;;14.19;65.99
27980;BME280;15315;50.836;4.430;2024-02-28T09:55:36;101678.34;;;14.58;65.42
27980;BME280;15315;50.836;4.430;2024-02-28T10:05:37;101677.91;;;14.14;67.55
27980;BME280;15315;50.836;4.430;2024-02-28T10:15:39;101677.91;;;14.14;66.54
27980;BME280;15315;50.836;4.430;2024-02-28T10:25:43;101661.94;;;14.22;67.42
27980;BME280;15315;50.836;4.430;2024-02-28T10:35:45;101635.41;;;15.49;65.61
27980;BME280;15315;50.836;4.430;2024-02-28T10:45:45;101647.78;;;15.16;66.03
27980;BME280;15315;50.836;4.430;2024-02-28T10:55:48;101641.72;;;15.49;66.23
27980;BME280;15315;50.836;4.430;2024-02-28T11:05:48;101645.09;;;15.64;64.67
27980;BME280;15315;50.836;4.430;2024-02-28T11:15:49;101633.53;;;15.84;64.19
27980;BME280;15315;50.836;4.430;2024-02-28T11:25:49;101630.88;;;15.95;64.16
27980;BME280;15315;50.836;4.430;2024-02-28T11:35:59;101621.97;;;15.93;64.34
27980;BME280;15315;50.836;4.430;2024-02-28T11:45:59;101614.13;;;15.77;64.34
27980;BME280;15315;50.836;4.430;2024-02-28T11:56:00;101610.84;;;16.07;63.67
27980;BME280;15315;50.836;4.430;2024-02-28T12:06:01;101610.63;;;16.10;61.80
27980;BME280;15315;50.836;4.430;2024-02-28T12:16:03;101605.53;;;16.05;61.50
27980;BME280;15315;50.836;4.430;2024-02-28T12:26:03;101599.09;;;15.95;62.24
27980;BME280;15315;50.836;4.430;2024-02-28T12:36:04;101585.53;;;15.61;63.00
27980;BME280;15315;50.836;4.430;2024-02-28T12:46:05;101570.75;;;15.87;61.08
27980;BME280;15315;50.836;4.430;2024-02-28T12:56:06;101570.94;;;16.52;60.72
27980;BME280;15315;50.836;4.430;2024-02-28T13:06:06;101559.78;;;16.22;60.77
27980;BME280;15315;50.836;4.430;2024-02-28T13:16:07;101562.66;;;16.42;61.00
27980;BME280;15315;50.836;4.430;2024-02-28T13:26:07;101560.91;;;16.75;59.62
27980;BME280;15315;50.836;4.430;2024-02-28T13:36:08;101555.66;;;16.83;59.97
27980;BME280;15315;50.836;4.430;2024-02-28T13:46:09;101532.72;;;16.96;59.14
27980;BME280;15315;50.836;4.430;2024-02-28T13:56:11;101521.81;;;15.87;61.02
27980;BME280;15315;50.836;4.430;2024-02-28T14:06:11;101515.75;;;16.50;59.59
27980;BME280;15315;50.836;4.430;2024-02-28T14:16:14;101511.22;;;16.28;58.30
27980;BME280;15315;50.836;4.430;2024-02-28T14:26:14;101505.78;;;16.82;58.41
27980;BME280;15315;50.836;4.430;2024-02-28T14:36:14;101503.81;;;16.73;57.78
27980;BME280;15315;50.836;4.430;2024-02-28T14:46:15;101512.03;;;16.06;59.22
27980;BME280;15315;50.836;4.430;2024-02-28T14:56:19;101494.03;;;17.13;57.79
27980;BME280;15315;50.836;4.430;2024-02-28T15:06:19;101493.16;;;16.81;56.80
27980;BME280;15315;50.836;4.430;2024-02-28T15:16:20;101492.94;;;16.62;57.36
27980;BME280;15315;50.836;4.430;2024-02-28T15:26:20;101471.59;;;16.89;57.24
27980;BME280;15315;50.836;4.430;2024-02-28T15:36:21;101458.09;;;17.40;55.53
27980;BME280;15315;50.836;4.430;2024-02-28T15:46:21;101445.13;;;17.53;55.31
27980;BME280;15315;50.836;4.430;2024-02-28T15:56:22;101452.03;;;16.84;56.79
27980;BME280;15315;50.836;4.430;2024-02-28T16:06:23;101433.25;;;17.02;55.86
27980;BME280;15315;50.836;4.430;2024-02-28T16:16:24;101427.66;;;16.83;56.16
27980;BME280;15315;50.836;4.430;2024-02-28T16:26:24;101451.84;;;14.75;59.88
27980;BME280;15315;50.836;4.430;2024-02-28T16:36:25;101435.53;;;15.78;58.62
27980;BME280;15315;50.836;4.430;2024-02-28T16:46:25;101441.59;;;15.70;58.75
27980;BME280;15315;50.836;4.430;2024-02-28T16:56:26;101407.59;;;15.87;58.06
27980;BME280;15315;50.836;4.430;2024-02-28T17:06:26;101423.91;;;15.42;59.60
27980;BME280;15315;50.836;4.430;2024-02-28T17:16:27;101409.03;;;14.78;61.38
27980;BME280;15315;50.836;4.430;2024-02-28T17:26:28;101426.00;;;14.46;63.60
27980;BME280;15315;50.836;4.430;2024-02-28T17:36:29;101411.03;;;14.40;63.59
27980;BME280;15315;50.836;4.430;2024-02-28T17:46:29;101413.47;;;14.79;62.13
27980;BME280;15315;50.836;4.430;2024-02-28T17:56:30;101425.16;;;15.04;61.01
27980;BME280;15315;50.836;4.430;2024-02-28T18:06:32;101428.44;;;14.85;61.30
27980;BME280;15315;50.836;4.430;2024-02-28T18:16:32;101412.56;;;14.68;61.33
27980;BME280;15315;50.836;4.430;2024-02-28T18:26:32;101410.41;;;14.84;61.21
27980;BME280;15315;50.836;4.430;2024-02-28T18:36:33;101398.97;;;14.57;61.48
27980;BME280;15315;50.836;4.430;2024-02-28T18:46:33;101403.22;;;13.88;64.85
27980;BME280;15315;50.836;4.430;2024-02-28T18:56:34;101389.13;;;13.83;65.06
27980;BME280;15315;50.836;4.430;2024-02-28T19:06:34;101377.41;;;14.19;63.75
27980;BME280;15315;50.836;4.430;2024-02-28T19:16:34;101370.91;;;13.85;64.60
27980;BME280;15315;50.836;4.430;2024-02-28T19:26:35;101362.16;;;14.05;63.57
27980;BME280;15315;50.836;4.430;2024-02-28T19:36:37;101365.38;;;13.87;63.95
27980;BME280;15315;50.836;4.430;2024-02-28T19:46:43;101358.19;;;13.62;64.85
27980;BME280;15315;50.836;4.430;2024-02-28T19:56:43;101327.28;;;13.52;64.45
27980;BME280;15315;50.836;4.430;2024-02-28T20:06:44;101333.06;;;13.35;65.37
27980;BME280;15315;50.836;4.430;2024-02-28T20:16:46;101321.06;;;13.14;65.64
27980;BME280;15315;50.836;4.430;2024-02-28T20:26:47;101321.59;;;13.19;65.52
27980;BME280;15315;50.836;4.430;2024-02-28T20:36:47;101312.41;;;12.96;65.98
27980;BME280;15315;50.836;4.430;2024-02-28T20:46:47;101292.25;;;12.87;65.57
27980;BME280;15315;50.836;4.430;2024-02-28T20:56:48;101286.66;;;12.78;66.64
27980;BME280;15315;50.836;4.430;2024-02-28T21:06:48;101271.84;;;12.31;67.46
27980;BME280;15315;50.836;4.430;2024-02-28T21:16:49;101252.34;;;12.78;65.39
27980;BME280;15315;50.836;4.430;2024-02-28T21:26:49;101228.84;;;12.66;66.27
27980;BME280;15315;50.836;4.430;2024-02-28T21:36:49;101212.78;;;12.51;66.25
27980;BME280;15315;50.836;4.430;2024-02-28T21:46:50;101218.84;;;12.42;66.92
27980;BME280;15315;50.836;4.430;2024-02-28T21:56:51;101201.56;;;12.82;65.17
27980;BME280;15315;50.836;4.430;2024-02-28T22:06:52;101186.75;;;12.37;66.67
27980;BME280;15315;50.836;4.430;2024-02-28T22:16:52;101183.28;;;12.48;66.77
27980;BME280;15315;50.836;4.430;2024-02-28T22:26:53;101168.56;;;12.39;67.81
27980;BME280;15315;50.836;4.430;2024-02-28T22:36:53;101169.53;;;11.61;70.95
27980;BME280;15315;50.836;4.430;2024-02-28T22:46:53;101162.94;;;12.17;69.58
27980;BME280;15315;50.836;4.430;2024-02-28T22:56:54;101152.72;;;11.83;71.08
27980;BME280;15315;50.836;4.430;2024-02-28T23:06:54;101126.19;;;12.02;70.16
27980;BME280;15315;50.836;4.430;2024-02-28T23:16:55;101119.84;;;11.37;74.61
27980;BME280;15315;50.836;4.430;2024-02-28T23:26:56;101107.56;;;12.10;71.25
27980;BME280;15315;50.836;4.430;2024-02-28T23:36:56;101094.06;;;12.10;71.67
27980;BME280;15315;50.836;4.430;2024-02-28T23:46:57;101079.72;;;11.97;72.62
27980;BME280;15315;50.836;4.430;2024-02-28T23:56:58;101077.63;;;11.75;74.33
